Time;durP1;ratioP1;P1;durP2;ratioP2;P2;SDS_P1;SDS_P2;PMS_P1;PMS_P2;Temp;Humidity;BMP_temperature;BMP_pressure;BME280_temperature;BME280_humidity;BME280_pressure;Samples;Min_cycle;Max_cycle;Signal;HPM_P1;HPM_P2
2022/07/10 00:00:06;;;;;;;;;;;;;;;;;;5019758;28;20418;-80
2022/07/10 00:02:31;;;;;;;;;;;;;;;;;;5020003;28;19920;-81
2022/07/10 00:04:56;;;;;;;;;;;;;;;;;;5023886;28;19913;-81
2022/07/10 00:07:21;;;;;;;;;;;;;;;;;;5020897;28;19969;-81
2022/07/10 00:09:46;;;;;;;;;;;;;;;;;;5007221;28;20550;-81
2022/07/10 00:12:12;;;;;;;;;;;;;;;;;;5033563;28;19917;-82
2022/07/10 00:14:37;;;;;;;;;;;;;;;;;;5022684;28;19920;-81
2022/07/10 00:17:02;;;;;;;;;;;;;;;;;;5025173;28;20458;-81
2022/07/10 00:19:27;;;;;;;;;;;;;;;;;;5025113;28;19921;-81
2022/07/10 00:21:52;;;;;;;;;;;;;;;;;;5020595;28;20385;-82
2022/07/10 00:24:17;;;;;;;;;;;;;;;;;;5016375;28;19920;-82
2022/07/10 00:26:43;;;;;;;;;;;;;;;;;;5024446;28;19917;-81
2022/07/10 00:29:08;;;;;;;;;;;;;;;;;;5024255;28;19944;-82
2022/07/10 00:31:33;;;;;;;;;;;;;;;;;;5024849;28;19920;-82
2022/07/10 00:33:59;;;;;;;;;;;;;;;;;;5020594;28;19949;-82
2022/07/10 00:36:24;;;;;;;;;;;;;;;;;;5016285;28;20080;-82
2022/07/10 00:38:49;;;;;;;;;;;;;;;;;;5017564;28;19921;-83
2022/07/10 00:41:15;;;;;;;;;;;;;;;;;;5020605;28;19913;-82
2022/07/10 00:43:40;;;;;;;;;;;;;;;;;;5023033;28;19917;-83
2022/07/10 00:46:05;;;;;;;;;;;;;;;;;;5019927;28;19925;-81
2022/07/10 00:48:30;;;;;;;;;;;;;;;;;;5023356;28;20322;-82
2022/07/10 00:50:55;;;;;;;;;;;;;;;;;;5008577;28;20464;-83
2022/07/10 00:53:21;;;;;;;;;;;;;;;;;;5020523;28;20358;-81
2022/07/10 00:55:46;;;;;;;;;;;;;;;;;;5022433;28;19921;-81
2022/07/10 00:58:11;;;;;;;;;;;;;;;;;;5024711;28;19914;-82
2022/07/10 01:00:39;;;;;;;;;;;;;;;;;;5023519;28;20350;-82
2022/07/10 01:03:04;;;;;;;;;;;;;;;;;;5020760;28;19937;-82
2022/07/10 01:05:30;;;;;;;;;;;;;;;;;;5022131;28;19967;-82
2022/07/10 01:07:55;;;;;;;;;;;;;;;;;;5022114;28;19913;-83
2022/07/10 01:10:20;;;;;;;;;;;;;;;;;;5024647;28;20421;-81
2022/07/10 01:12:45;;;;;;;;;;;;;;;;;;5020703;28;19921;-81
2022/07/10 01:15:11;;;;;;;;;;;;;;;;;;5035946;22;19933;-82
2022/07/10 01:17:36;;;;;;;;;;;;;;;;;;5019780;28;19997;-81
2022/07/10 01:20:01;;;;;;;;;;;;;;;;;;5016277;28;20486;-81
2022/07/10 01:22:26;;;;;;;;;;;;;;;;;;5020766;28;19914;-83
2022/07/10 01:24:51;;;;;;;;;;;;;;;;;;5017355;28;19952;-83
2022/07/10 01:27:16;;;;;;;;;;;;;;;;;;5014258;28;20335;-84
2022/07/10 01:29:42;;;;;;;;;;;;;;;;;;5021815;28;20014;-83
2022/07/10 01:32:07;;;;;;;;;;;;;;;;;;5013283;28;19933;-83
2022/07/10 01:34:32;;;;;;;;;;;;;;;;;;5016373;28;19924;-84
2022/07/10 01:36:57;;;;;;;;;;;;;;;;;;5015997;28;19914;-83
2022/07/10 01:39:22;;;;;;;;;;;;;;;;;;5016581;28;19921;-84
2022/07/10 01:41:48;;;;;;;;;;;;;;;;;;5016057;28;20299;-83
2022/07/10 01:44:13;;;;;;;;;;;;;;;;;;5016454;28;20370;-83
2022/07/10 01:46:38;;;;;;;;;;;;;;;;;;5019039;28;19921;-84
2022/07/10 01:49:03;;;;;;;;;;;;;;;;;;5016822;28;20313;-83
2022/07/10 01:51:28;;;;;;;;;;;;;;;;;;5015355;28;19923;-83
2022/07/10 01:53:53;;;;;;;;;;;;;;;;;;5013642;28;20334;-83
2022/07/10 01:56:19;;;;;;;;;;;;;;;;;;5013086;28;20359;-84
2022/07/10 01:58:44;;;;;;;;;;;;;;;;;;5017319;28;20314;-84
2022/07/10 02:01:09;;;;;;;;;;;;;;;;;;5016030;28;19961;-83
2022/07/10 02:06:18;;;;;;;;;;;;;;;;;;5016409;28;19952;-82
2022/07/10 02:08:43;;;;;;;;;;;;;;;;;;5017977;28;19914;-82
2022/07/10 02:11:09;;;;;;;;;;;;;;;;;;5017415;28;20262;-83
2022/07/10 02:13:34;;;;;;;;;;;;;;;;;;5017583;28;20351;-83
2022/07/10 02:15:59;;;;;;;;;;;;;;;;;;5019435;28;19960;-82
2022/07/10 02:18:24;;;;;;;;;;;;;;;;;;5019494;28;19914;-82
2022/07/10 02:20:49;;;;;;;;;;;;;;;;;;5017903;28;19925;-81
2022/07/10 02:23:14;;;;;;;;;;;;;;;;;;5018554;28;20120;-82
2022/07/10 02:25:40;;;;;;;;;;;;;;;;;;5014814;28;20338;-82
2022/07/10 02:28:05;;;;;;;;;;;;;;;;;;5017216;28;20096;-83
2022/07/10 02:30:30;;;;;;;;;;;;;;;;;;5014796;28;20371;-83
2022/07/10 02:32:55;;;;;;;;;;;;;;;;;;5016789;28;19917;-82
2022/07/10 02:35:20;;;;;;;;;;;;;;;;;;5020770;28;19917;-82
2022/07/10 02:37:46;;;;;;;;;;;;;;;;;;5018652;28;19921;-82
2022/07/10 02:40:11;;;;;;;;;;;;;;;;;;5015751;28;20290;-81
2022/07/10 02:42:36;;;;;;;;;;;;;;;;;;5019881;28;19933;-83
2022/07/10 02:45:01;;;;;;;;;;;;;;;;;;5016398;28;20290;-83
2022/07/10 02:47:26;;;;;;;;;;;;;;;;;;5019499;28;19913;-83
2022/07/10 02:49:51;;;;;;;;;;;;;;;;;;5016069;28;20290;-81
2022/07/10 02:52:16;;;;;;;;;;;;;;;;;;5015147;28;19948;-82
2022/07/10 02:54:42;;;;;;;;;;;;;;;;;;5020315;28;19917;-82
2022/07/10 02:57:07;;;;;;;;;;;;;;;;;;5022472;28;20405;-83
2022/07/10 02:59:32;;;;;;;;;;;;;;;;;;5016155;28;19917;-83
2022/07/10 03:01:57;;;;;;;;;;;;;;;;;;5019206;28;20326;-82
2022/07/10 03:04:22;;;;;;;;;;;;;;;;;;5017563;28;19993;-82
2022/07/10 03:06:48;;;;;;;;;;;;;;;;;;5017554;28;19914;-85
2022/07/10 03:09:13;;;;;;;;;;;;;;;;;;5014939;28;19936;-83
2022/07/10 03:11:38;;;;;;;;;;;;;;;;;;5020823;28;19917;-83
2022/07/10 03:14:03;;;;;;;;;;;;;;;;;;5014653;28;19912;-84
2022/07/10 03:16:28;;;;;;;;;;;;;;;;;;5017779;28;19917;-82
2022/07/10 03:18:54;;;;;;;;;;;;;;;;;;5017681;28;19930;-83
2022/07/10 03:21:19;;;;;;;;;;;;;;;;;;5019064;28;19925;-84
2022/07/10 03:23:44;;;;;;;;;;;;;;;;;;5018723;28;20367;-82
2022/07/10 03:26:09;;;;;;;;;;;;;;;;;;5016811;28;20272;-82
2022/07/10 03:28:35;;;;;;;;;;;;;;;;;;5018344;28;20461;-83
2022/07/10 03:31:00;;;;;;;;;;;;;;;;;;5014533;28;19932;-83
2022/07/10 03:33:26;;;;;;;;;;;;;;;;;;5013456;28;19917;-83
2022/07/10 03:35:51;;;;;;;;;;;;;;;;;;4998515;28;20016;-83
2022/07/10 03:38:16;;;;;;;;;;;;;;;;;;5018017;28;19920;-83
2022/07/10 03:40:42;;;;;;;;;;;;;;;;;;5016254;28;19960;-83
2022/07/10 03:43:07;;;;;;;;;;;;;;;;;;5012570;28;20019;-82
2022/07/10 03:45:32;;;;;;;;;;;;;;;;;;5016682;28;19913;-83
2022/07/10 03:47:57;;;;;;;;;;;;;;;;;;5015335;28;19935;-83
2022/07/10 03:50:22;;;;;;;;;;;;;;;;;;5016873;28;19921;-82
2022/07/10 03:52:48;;;;;;;;;;;;;;;;;;4995362;28;20096;-83
2022/07/10 03:55:13;;;;;;;;;;;;;;;;;;5013451;28;20392;-83
2022/07/10 03:57:53;;;;;;;;;;;;;;;;;;5011732;28;19987;-84
2022/07/10 04:00:18;;;;;;;;;;;;;;;;;;5016799;28;20378;-83
2022/07/10 04:02:44;;;;;;;;;;;;;;;;;;5015771;28;19941;-83
2022/07/10 04:05:09;;;;;;;;;;;;;;;;;;5013695;28;19928;-83
2022/07/10 04:07:34;;;;;;;;;;;;;;;;;;5001987;28;19917;-83
2022/07/10 04:09:59;;;;;;;;;;;;;;;;;;5013838;28;20287;-83
2022/07/10 04:12:24;;;;;;;;;;;;;;;;;;5016138;28;20008;-84
2022/07/10 04:14:51;;;;;;;;;;;;;;;;;;5014607;28;20355;-84
2022/07/10 04:17:16;;;;;;;;;;;;;;;;;;5014308;28;19964;-84
2022/07/10 04:19:41;;;;;;;;;;;;;;;;;;5016513;28;20156;-83
2022/07/10 04:22:06;;;;;;;;;;;;;;;;;;5019769;28;20527;-82
2022/07/10 04:24:32;;;;;;;;;;;;;;;;;;5021272;28;19913;-85
2022/07/10 04:26:57;;;;;;;;;;;;;;;;;;5023436;28;20438;-83
2022/07/10 04:29:22;;;;;;;;;;;;;;;;;;5018054;28;19913;-83
2022/07/10 04:31:47;;;;;;;;;;;;;;;;;;5024023;28;19919;-84
2022/07/10 04:34:12;;;;;;;;;;;;;;;;;;5025064;28;19917;-82
2022/07/10 04:36:38;;;;;;;;;;;;;;;;;;5020538;28;20296;-84
2022/07/10 04:39:03;;;;;;;;;;;;;;;;;;5016856;28;19913;-84
2022/07/10 04:41:28;;;;;;;;;;;;;;;;;;5019776;28;19920;-82
2022/07/10 04:43:53;;;;;;;;;;;;;;;;;;5018006;28;20338;-83
2022/07/10 04:46:19;;;;;;;;;;;;;;;;;;5017407;28;19913;-82
2022/07/10 04:48:44;;;;;;;;;;;;;;;;;;5019349;28;20153;-82
2022/07/10 04:51:09;;;;;;;;;;;;;;;;;;5006547;28;19917;-82
2022/07/10 04:53:34;;;;;;;;;;;;;;;;;;5021554;28;19959;-83
2022/07/10 04:56:00;;;;;;;;;;;;;;;;;;5019763;28;19917;-83
2022/07/10 04:58:25;;;;;;;;;;;;;;;;;;5022707;28;19963;-84
2022/07/10 05:00:50;;;;;;;;;;;;;;;;;;5023380;28;19917;-83
2022/07/10 05:03:15;;;;;;;;;;;;;;;;;;5020304;28;19924;-84
2022/07/10 05:05:40;;;;;;;;;;;;;;;;;;5023474;28;20350;-84
2022/07/10 05:08:06;;;;;;;;;;;;;;;;;;5020915;28;19990;-83
2022/07/10 05:10:31;;;;;;;;;;;;;;;;;;5022418;28;19914;-82
2022/07/10 05:12:56;;;;;;;;;;;;;;;;;;5020010;28;19925;-82
2022/07/10 05:15:22;;;;;;;;;;;;;;;;;;5019897;28;20274;-82
2022/07/10 05:17:47;;;;;;;;;;;;;;;;;;5018880;28;20457;-82
2022/07/10 05:20:12;;;;;;;;;;;;;;;;;;5020592;28;19917;-82
2022/07/10 05:22:37;;;;;;;;;;;;;;;;;;5021622;28;20195;-82
2022/07/10 05:25:02;;;;;;;;;;;;;;;;;;5018898;28;19913;-84
2022/07/10 05:27:27;;;;;;;;;;;;;;;;;;5019664;28;19964;-82
2022/07/10 05:29:52;;;;;;;;;;;;;;;;;;5018823;28;19917;-82
2022/07/10 05:32:18;;;;;;;;;;;;;;;;;;5018085;28;19921;-83
2022/07/10 05:34:43;;;;;;;;;;;;;;;;;;5026106;28;19913;-83
2022/07/10 05:37:08;;;;;;;;;;;;;;;;;;5020257;28;20341;-84
2022/07/10 05:39:33;;;;;;;;;;;;;;;;;;5019289;28;19920;-84
2022/07/10 05:41:58;;;;;;;;;;;;;;;;;;5017838;28;19961;-83
2022/07/10 05:44:24;;;;;;;;;;;;;;;;;;5019187;28;19960;-84
2022/07/10 05:46:49;;;;;;;;;;;;;;;;;;5016302;28;19975;-83
2022/07/10 05:49:14;;;;;;;;;;;;;;;;;;5015489;28;19928;-84
2022/07/10 05:51:39;;;;;;;;;;;;;;;;;;5021340;28;19920;-83
2022/07/10 05:54:04;;;;;;;;;;;;;;;;;;5015587;28;19917;-84
2022/07/10 05:56:29;;;;;;;;;;;;;;;;;;5017479;28;19934;-83
2022/07/10 05:58:58;;;;;;;;;;;;;;;;;;5014881;28;20007;-84
2022/07/10 06:01:23;;;;;;;;;;;;;;;;;;5002998;28;19936;-83
2022/07/10 06:03:48;;;;;;;;;;;;;;;;;;5013332;28;20370;-84
2022/07/10 06:06:16;;;;;;;;;;;;;;;;;;5012811;28;20383;-83
2022/07/10 06:08:42;;;;;;;;;;;;;;;;;;5019807;28;20322;-84
2022/07/10 06:11:07;;;;;;;;;;;;;;;;;;5017912;28;20479;-86
2022/07/10 06:13:32;;;;;;;;;;;;;;;;;;5016660;28;20379;-83
2022/07/10 06:15:57;;;;;;;;;;;;;;;;;;5016127;28;19917;-84
2022/07/10 06:18:22;;;;;;;;;;;;;;;;;;5017336;28;20008;-83
2022/07/10 06:20:47;;;;;;;;;;;;;;;;;;5022770;28;20438;-83
2022/07/10 06:23:13;;;;;;;;;;;;;;;;;;5021538;28;19917;-84
2022/07/10 06:25:38;;;;;;;;;;;;;;;;;;5020366;28;19983;-83
2022/07/10 06:28:03;;;;;;;;;;;;;;;;;;5018678;28;20363;-84
2022/07/10 06:30:28;;;;;;;;;;;;;;;;;;5004710;28;19983;-83
2022/07/10 06:32:53;;;;;;;;;;;;;;;;;;5018158;28;19917;-84
2022/07/10 06:35:18;;;;;;;;;;;;;;;;;;5018943;28;19917;-84
2022/07/10 06:37:44;;;;;;;;;;;;;;;;;;5018087;28;19920;-85
2022/07/10 06:40:09;;;;;;;;;;;;;;;;;;5019177;28;20363;-85
2022/07/10 06:42:34;;;;;;;;;;;;;;;;;;5018509;28;19925;-85
2022/07/10 06:44:59;;;;;;;;;;;;;;;;;;5018022;28;20023;-83
2022/07/10 06:50:08;;;;;;;;;;;;;;;;;;5016269;28;20020;-84
2022/07/10 06:52:33;;;;;;;;;;;;;;;;;;5017592;28;20012;-85
2022/07/10 06:54:58;;;;;;;;;;;;;;;;;;5013070;28;20590;-85
2022/07/10 06:57:24;;;;;;;;;;;;;;;;;;5003546;28;19956;-84
2022/07/10 06:59:49;;;;;;;;;;;;;;;;;;5016052;28;19960;-84
2022/07/10 07:02:14;;;;;;;;;;;;;;;;;;5015500;28;20338;-84
2022/07/10 07:04:39;;;;;;;;;;;;;;;;;;5014991;28;20408;-85
2022/07/10 07:07:04;;;;;;;;;;;;;;;;;;5011947;28;19953;-85
2022/07/10 07:09:30;;;;;;;;;;;;;;;;;;5016249;28;19918;-84
2022/07/10 07:11:55;;;;;;;;;;;;;;;;;;5014234;28;20106;-84
2022/07/10 07:14:20;;;;;;;;;;;;;;;;;;5013108;28;19914;-83
2022/07/10 07:16:56;;;;;;;;;;;;;;;;;;5045015;23;19976;-84
2022/07/10 07:19:30;;;;;;;;;;;;;;;;;;5038737;28;20401;-83
2022/07/10 07:24:39;;;;;;;;;;;;;;;;;;5038130;28;19932;-84
2022/07/10 07:27:04;;;;;;;;;;;;;;;;;;5010917;28;20278;-84
2022/07/10 07:29:30;;;;;;;;;;;;;;;;;;5032787;28;19913;-83
2022/07/10 07:31:55;;;;;;;;;;;;;;;;;;5034610;28;19948;-84
2022/07/10 07:34:20;;;;;;;;;;;;;;;;;;5015246;28;20435;-84
2022/07/10 07:36:45;;;;;;;;;;;;;;;;;;5028632;28;19917;-83
2022/07/10 07:39:10;;;;;;;;;;;;;;;;;;5029577;28;19971;-84
2022/07/10 07:41:36;;;;;;;;;;;;;;;;;;5032312;28;19909;-84
2022/07/10 07:44:01;;;;;;;;;;;;;;;;;;5034157;28;19921;-84
2022/07/10 07:46:26;;;;;;;;;;;;;;;;;;5037231;28;19917;-84
2022/07/10 07:48:51;;;;;;;;;;;;;;;;;;5031505;28;19909;-83
2022/07/10 07:51:16;;;;;;;;;;;;;;;;;;5030561;28;19913;-83
2022/07/10 07:53:41;;;;;;;;;;;;;;;;;;5032286;28;20027;-84
2022/07/10 07:56:07;;;;;;;;;;;;;;;;;;5037021;28;19925;-84
2022/07/10 07:58:32;;;;;;;;;;;;;;;;;;5033935;28;20020;-83
2022/07/10 08:00:58;;;;;;;;;;;;;;;;;;5038471;28;19913;-84
2022/07/10 08:03:23;;;;;;;;;;;;;;;;;;5033112;28;20007;-84
2022/07/10 08:05:49;;;;;;;;;;;;;;;;;;5040096;28;20043;-84
2022/07/10 08:08:14;;;;;;;;;;;;;;;;;;5038001;28;19988;-83
2022/07/10 08:10:40;;;;;;;;;;;;;;;;;;5040594;28;20381;-84
2022/07/10 08:13:05;;;;;;;;;;;;;;;;;;5034315;28;19917;-84
2022/07/10 08:15:30;;;;;;;;;;;;;;;;;;5035266;28;19925;-84
2022/07/10 08:17:55;;;;;;;;;;;;;;;;;;5036718;28;19917;-85
2022/07/10 08:20:20;;;;;;;;;;;;;;;;;;5036074;28;19979;-83
2022/07/10 08:22:46;;;;;;;;;;;;;;;;;;5014622;28;20337;-84
2022/07/10 08:25:11;;;;;;;;;;;;;;;;;;5041931;28;19996;-84
2022/07/10 08:27:37;;;;;;;;;;;;;;;;;;5043494;28;19967;-84
2022/07/10 08:30:02;;;;;;;;;;;;;;;;;;5031025;28;19937;-85
2022/07/10 08:32:27;;;;;;;;;;;;;;;;;;5038199;28;19913;-83
2022/07/10 08:34:52;;;;;;;;;;;;;;;;;;5032176;28;19920;-84
2022/07/10 08:37:19;;;;;;;;;;;;;;;;;;5038553;28;20386;-85
2022/07/10 08:39:44;;;;;;;;;;;;;;;;;;5036971;28;19913;-84
2022/07/10 08:42:10;;;;;;;;;;;;;;;;;;5043138;28;19917;-83
2022/07/10 08:44:35;;;;;;;;;;;;;;;;;;5021486;28;19928;-84
2022/07/10 08:47:00;;;;;;;;;;;;;;;;;;5035322;28;19962;-83
2022/07/10 08:49:25;;;;;;;;;;;;;;;;;;5036841;28;19913;-85
2022/07/10 08:51:50;;;;;;;;;;;;;;;;;;5038276;28;19921;-83
2022/07/10 08:54:16;;;;;;;;;;;;;;;;;;5032904;28;20321;-84
2022/07/10 08:56:41;;;;;;;;;;;;;;;;;;5017508;28;20017;-83
2022/07/10 08:59:06;;;;;;;;;;;;;;;;;;5034053;28;19967;-84
2022/07/10 09:01:32;;;;;;;;;;;;;;;;;;5043078;28;19913;-84
2022/07/10 09:03:57;;;;;;;;;;;;;;;;;;5034155;28;19921;-84
2022/07/10 09:06:22;;;;;;;;;;;;;;;;;;5014576;28;19917;-84
2022/07/10 09:08:47;;;;;;;;;;;;;;;;;;5037375;28;19913;-85
2022/07/10 09:11:13;;;;;;;;;;;;;;;;;;5039127;28;19984;-84
2022/07/10 09:13:38;;;;;;;;;;;;;;;;;;5033327;28;20431;-84
2022/07/10 09:16:03;;;;;;;;;;;;;;;;;;5031390;28;19927;-84
2022/07/10 09:18:28;;;;;;;;;;;;;;;;;;5032333;28;19917;-83
2022/07/10 09:20:53;;;;;;;;;;;;;;;;;;5033401;28;20012;-84
2022/07/10 09:23:18;;;;;;;;;;;;;;;;;;5036217;28;19917;-84
2022/07/10 09:25:44;;;;;;;;;;;;;;;;;;5031605;28;20363;-84
2022/07/10 09:28:09;;;;;;;;;;;;;;;;;;5036915;28;19916;-84
2022/07/10 09:30:34;;;;;;;;;;;;;;;;;;5040555;28;19916;-84
2022/07/10 09:32:59;;;;;;;;;;;;;;;;;;5021571;28;19913;-84
2022/07/10 09:38:19;;;;;;;;;;;;;;;;;;5011513;28;19916;-83
2022/07/10 09:40:44;;;;;;;;;;;;;;;;;;5039364;28;19975;-83
2022/07/10 09:43:09;;;;;;;;;;;;;;;;;;5040937;28;19924;-83
2022/07/10 09:45:35;;;;;;;;;;;;;;;;;;5039165;28;19921;-85
2022/07/10 09:48:03;;;;;;;;;;;;;;;;;;5036632;28;19913;-83
2022/07/10 09:50:29;;;;;;;;;;;;;;;;;;5035284;28;19924;-85
2022/07/10 09:52:54;;;;;;;;;;;;;;;;;;5045560;28;19921;-84
2022/07/10 09:55:22;;;;;;;;;;;;;;;;;;5038054;28;19921;-84
2022/07/10 09:57:47;;;;;;;;;;;;;;;;;;5045711;28;19913;-86
2022/07/10 10:00:20;;;;;;;;;;;;;;;;;;5040694;28;19923;-84
2022/07/10 11:12:37;;;;;;;;;;;;;;;;;;4967671;28;19927;-84
2022/07/10 11:15:06;;;;;;;;;;;;;;;;;;4970958;28;20354;-85
2022/07/10 11:17:31;;;;;;;;;;;;;;;;;;4985664;28;20608;-84
2022/07/10 11:19:57;;;;;;;;;;;;;;;;;;4970073;28;19933;-84
2022/07/10 11:22:22;;;;;;;;;;;;;;;;;;4987841;28;19973;-85
2022/07/10 11:24:48;;;;;;;;;;;;;;;;;;4982711;28;19913;-86
2022/07/10 11:27:13;;;;;;;;;;;;;;;;;;4984148;28;19914;-84
2022/07/10 11:29:39;;;;;;;;;;;;;;;;;;4987529;28;20325;-84
2022/07/10 11:32:04;;;;;;;;;;;;;;;;;;4979801;28;20282;-85
2022/07/10 11:34:29;;;;;;;;;;;;;;;;;;4979274;28;19964;-84
2022/07/10 11:36:54;;;;;;;;;;;;;;;;;;4985421;28;19924;-84
2022/07/10 11:39:20;;;;;;;;;;;;;;;;;;4985485;28;19924;-84
2022/07/10 11:41:45;;;;;;;;;;;;;;;;;;4981366;28;20265;-85
2022/07/10 11:44:10;;;;;;;;;;;;;;;;;;4985956;28;19918;-84
2022/07/10 11:46:37;;;;;;;;;;;;;;;;;;4978855;28;19925;-84
2022/07/10 11:49:04;;;;;;;;;;;;;;;;;;4980631;28;19975;-84
2022/07/10 11:51:29;;;;;;;;;;;;;;;;;;4985108;28;19914;-84
2022/07/10 11:53:55;;;;;;;;;;;;;;;;;;4985978;28;19921;-84
2022/07/10 11:56:20;;;;;;;;;;;;;;;;;;4983135;28;19983;-84
2022/07/10 11:58:45;;;;;;;;;;;;;;;;;;4985246;28;20040;-85
2022/07/10 12:01:14;;;;;;;;;;;;;;;;;;4981942;28;20950;-84
2022/07/10 12:03:40;;;;;;;;;;;;;;;;;;4987001;28;19914;-85
2022/07/10 12:06:05;;;;;;;;;;;;;;;;;;4982280;28;19920;-85
2022/07/10 12:08:30;;;;;;;;;;;;;;;;;;4989239;28;19924;-85
2022/07/10 12:10:55;;;;;;;;;;;;;;;;;;4991980;28;20688;-84
2022/07/10 12:13:21;;;;;;;;;;;;;;;;;;5005797;28;19987;-84
2022/07/10 12:15:46;;;;;;;;;;;;;;;;;;5002071;28;19922;-85
2022/07/10 12:18:12;;;;;;;;;;;;;;;;;;5003410;28;19920;-84
2022/07/10 12:20:37;;;;;;;;;;;;;;;;;;4999026;28;20377;-85
2022/07/10 12:23:02;;;;;;;;;;;;;;;;;;5006758;28;20013;-85
2022/07/10 12:25:28;;;;;;;;;;;;;;;;;;5004638;28;19957;-84
2022/07/10 12:27:53;;;;;;;;;;;;;;;;;;5002365;28;20522;-84
2022/07/10 12:30:18;;;;;;;;;;;;;;;;;;5003904;28;19924;-84
2022/07/10 12:32:43;;;;;;;;;;;;;;;;;;5003452;28;19918;-84
2022/07/10 12:35:14;;;;;;;;;;;;;;;;;;5000757;28;19924;-84
2022/07/10 12:37:39;;;;;;;;;;;;;;;;;;5002483;28;19971;-84
2022/07/10 12:40:05;;;;;;;;;;;;;;;;;;5006406;28;19917;-87
2022/07/10 12:42:30;;;;;;;;;;;;;;;;;;5010428;28;20729;-85
2022/07/10 12:44:56;;;;;;;;;;;;;;;;;;4998291;28;19913;-84
2022/07/10 12:47:21;;;;;;;;;;;;;;;;;;5006652;28;19952;-85
2022/07/10 12:49:46;;;;;;;;;;;;;;;;;;5009927;28;19921;-85
2022/07/10 12:52:11;;;;;;;;;;;;;;;;;;5003988;28;20563;-84
2022/07/10 12:54:37;;;;;;;;;;;;;;;;;;5009683;28;20063;-85
2022/07/10 12:57:02;;;;;;;;;;;;;;;;;;5009279;28;19918;-85
2022/07/10 12:59:28;;;;;;;;;;;;;;;;;;5011030;28;19920;-83
2022/07/10 13:01:53;;;;;;;;;;;;;;;;;;5005877;28;19920;-84
2022/07/10 13:04:19;;;;;;;;;;;;;;;;;;5008921;28;19918;-85
2022/07/10 13:06:44;;;;;;;;;;;;;;;;;;5008346;28;19914;-85
2022/07/10 13:09:10;;;;;;;;;;;;;;;;;;5005486;28;19921;-85
2022/07/10 13:11:36;;;;;;;;;;;;;;;;;;5006818;28;19957;-84
2022/07/10 13:14:01;;;;;;;;;;;;;;;;;;5004420;28;19921;-84
2022/07/10 13:16:26;;;;;;;;;;;;;;;;;;5015703;28;19918;-84
2022/07/10 13:18:52;;;;;;;;;;;;;;;;;;5027949;28;20170;-86
2022/07/10 13:21:17;;;;;;;;;;;;;;;;;;5024454;28;19917;-84
2022/07/10 13:23:42;;;;;;;;;;;;;;;;;;5023604;28;19952;-88
2022/07/10 13:26:07;;;;;;;;;;;;;;;;;;5024820;28;19914;-83
2022/07/10 13:28:32;;;;;;;;;;;;;;;;;;5023709;28;19941;-83
2022/07/10 13:30:58;;;;;;;;;;;;;;;;;;5025188;28;19917;-84
2022/07/10 13:33:24;;;;;;;;;;;;;;;;;;5023102;28;19917;-83
2022/07/10 13:35:49;;;;;;;;;;;;;;;;;;5018761;28;19922;-84
2022/07/10 13:38:14;;;;;;;;;;;;;;;;;;5023214;28;19989;-83
2022/07/10 14:15:04;;;;;;;;;;;;;;;;;;4980964;28;19930;-83
2022/07/10 14:17:29;;;;;;;;;;;;;;;;;;5000620;28;19932;-85
2022/07/10 14:19:55;;;;;;;;;;;;;;;;;;4997969;28;19921;-84
2022/07/10 14:22:21;;;;;;;;;;;;;;;;;;4998544;28;19921;-83
2022/07/10 14:24:46;;;;;;;;;;;;;;;;;;4999051;28;19918;-84
2022/07/10 14:27:11;;;;;;;;;;;;;;;;;;4998746;28;19925;-84
2022/07/10 14:29:36;;;;;;;;;;;;;;;;;;4994641;28;20555;-84
2022/07/10 14:32:02;;;;;;;;;;;;;;;;;;4986711;28;19910;-84
2022/07/10 14:34:28;;;;;;;;;;;;;;;;;;4999907;28;19967;-87
2022/07/10 14:36:54;;;;;;;;;;;;;;;;;;4995665;28;19953;-84
2022/07/10 14:39:19;;;;;;;;;;;;;;;;;;4998620;28;19914;-85
2022/07/10 14:41:44;;;;;;;;;;;;;;;;;;4995680;28;19980;-84
2022/07/10 14:44:09;;;;;;;;;;;;;;;;;;4995230;28;20386;-84
2022/07/10 14:46:37;;;;;;;;;;;;;;;;;;4998820;28;20689;-83
2022/07/10 14:51:51;;;;;;;;;;;;;;;;;;4938849;29;19925;-86
2022/07/10 14:54:16;;;;;;;;;;;;;;;;;;4988177;28;19982;-83
2022/07/10 14:56:42;;;;;;;;;;;;;;;;;;4998088;28;19922;-84
2022/07/10 14:59:08;;;;;;;;;;;;;;;;;;4997726;28;19922;-83
2022/07/10 15:01:33;;;;;;;;;;;;;;;;;;5001111;28;19940;-85
2022/07/10 15:03:58;;;;;;;;;;;;;;;;;;4998196;28;20404;-84
2022/07/10 15:06:23;;;;;;;;;;;;;;;;;;4991102;28;19918;-85
2022/07/10 15:08:51;;;;;;;;;;;;;;;;;;4998627;28;20016;-85
2022/07/10 15:11:16;;;;;;;;;;;;;;;;;;4997242;28;19937;-83
2022/07/10 15:13:42;;;;;;;;;;;;;;;;;;5009606;28;19921;-86
2022/07/10 15:16:08;;;;;;;;;;;;;;;;;;5020743;28;20311;-86
2022/07/10 15:18:33;;;;;;;;;;;;;;;;;;5017737;28;20502;-83
2022/07/10 15:20:58;;;;;;;;;;;;;;;;;;5017061;28;19924;-84
2022/07/10 15:23:23;;;;;;;;;;;;;;;;;;4999652;28;19995;-83
2022/07/10 15:25:48;;;;;;;;;;;;;;;;;;5027490;28;19964;-85
2022/07/10 15:28:14;;;;;;;;;;;;;;;;;;5012642;28;19956;-84
2022/07/10 15:30:39;;;;;;;;;;;;;;;;;;5020390;28;19944;-84
2022/07/10 15:33:04;;;;;;;;;;;;;;;;;;5018695;28;20095;-84
2022/07/10 15:35:29;;;;;;;;;;;;;;;;;;5017147;28;19914;-83
2022/07/10 15:37:55;;;;;;;;;;;;;;;;;;5019424;28;19918;-85
2022/07/10 15:40:20;;;;;;;;;;;;;;;;;;5019752;28;19922;-84
2022/07/10 15:42:45;;;;;;;;;;;;;;;;;;5022400;28;19911;-83
2022/07/10 15:45:11;;;;;;;;;;;;;;;;;;5024679;28;19910;-84
2022/07/10 15:47:37;;;;;;;;;;;;;;;;;;5019081;28;19948;-83
2022/07/10 15:50:02;;;;;;;;;;;;;;;;;;5017944;28;20363;-84
2022/07/10 15:52:27;;;;;;;;;;;;;;;;;;5021150;28;19983;-83
2022/07/10 15:54:52;;;;;;;;;;;;;;;;;;5020262;28;19924;-83
2022/07/10 15:57:17;;;;;;;;;;;;;;;;;;5019142;28;19998;-84
2022/07/10 15:59:43;;;;;;;;;;;;;;;;;;5017714;28;19936;-83
2022/07/10 16:02:10;;;;;;;;;;;;;;;;;;5026613;28;20008;-84
2022/07/10 16:04:35;;;;;;;;;;;;;;;;;;5023312;28;19920;-84
2022/07/10 16:07:03;;;;;;;;;;;;;;;;;;5020929;28;20407;-85
2022/07/10 16:09:56;;;;;;;;;;;;;;;;;;;;;
2022/07/10 16:37:53;;;;;;;;;;;;;;;;;;4903267;29;19923;-85
2022/07/10 16:40:29;;;;;;;;;;;;;;;;;;;;;
2022/07/10 16:43:17;;;;;;;;;;;;;;;;;;;;;
2022/07/10 16:45:44;;;;;;;;;;;;;;;;;;4963031;22;20015;-87
2022/07/10 16:48:10;;;;;;;;;;;;;;;;;;5024220;28;20467;-87
2022/07/10 16:50:38;;;;;;;;;;;;;;;;;;5023501;28;20287;-88
2022/07/10 16:53:03;;;;;;;;;;;;;;;;;;5018212;28;19914;-88
2022/07/10 16:55:31;;;;;;;;;;;;;;;;;;5013010;28;19913;-87
2022/07/10 16:57:56;;;;;;;;;;;;;;;;;;5008753;28;20021;-90
2022/07/10 17:00:22;;;;;;;;;;;;;;;;;;5006063;28;19972;-90
2022/07/10 17:02:47;;;;;;;;;;;;;;;;;;4983399;28;19917;-89
2022/07/10 17:05:13;;;;;;;;;;;;;;;;;;5014539;28;19913;-91
2022/07/10 17:07:39;;;;;;;;;;;;;;;;;;5011155;28;19926;-89
2022/07/10 17:10:07;;;;;;;;;;;;;;;;;;5014612;28;19917;-90
2022/07/10 17:12:35;;;;;;;;;;;;;;;;;;5013406;28;19913;-89
2022/07/10 18:12:03;;;;;;;;;;;;;;;;;;5042377;28;19936;-82
2022/07/10 18:14:28;;;;;;;;;;;;;;;;;;5044505;28;19927;-83
2022/07/10 18:16:56;;;;;;;;;;;;;;;;;;5024561;28;19921;-82
2022/07/10 18:19:22;;;;;;;;;;;;;;;;;;5031187;28;19917;-82
2022/07/10 18:21:47;;;;;;;;;;;;;;;;;;5026835;28;19924;-82
2022/07/10 18:24:17;;;;;;;;;;;;;;;;;;5023724;28;19948;-82
2022/07/10 18:26:46;;;;;;;;;;;;;;;;;;5028131;28;19924;-82
2022/07/10 18:31:58;;;;;;;;;;;;;;;;;;5031748;28;19999;-82
2022/07/10 18:34:37;;;;;;;;;;;;;;;;;;;;;
2022/07/10 18:48:17;;;;;;;;;;;;;;;;;;4951339;28;19915;-82
2022/07/10 19:12:57;;;;;;;;;;;;;;;;;;4987718;28;19937;-82
2022/07/10 19:17:57;;;;;;;;;;;;;;;;;;5018002;28;20574;-84
2022/07/10 19:20:23;;;;;;;;;;;;;;;;;;5022380;28;19921;-83
2022/07/10 19:22:48;;;;;;;;;;;;;;;;;;5020607;28;19976;-83
2022/07/10 19:25:13;;;;;;;;;;;;;;;;;;5026311;28;19932;-84
2022/07/10 19:27:38;;;;;;;;;;;;;;;;;;5006382;28;19913;-83
2022/07/10 19:30:05;;;;;;;;;;;;;;;;;;5003959;28;20016;-84
2022/07/10 19:32:30;;;;;;;;;;;;;;;;;;5002346;28;20225;-84
2022/07/10 19:34:57;;;;;;;;;;;;;;;;;;5000692;28;19957;-83
2022/07/10 19:37:22;;;;;;;;;;;;;;;;;;5005019;28;20280;-83
2022/07/10 19:40:09;;;;;;;;;;;;;;;;;;5004704;28;19925;-84
2022/07/10 19:42:33;;;;;;;;;;;;;;;;;;5002238;28;19971;-83
2022/07/10 19:44:58;;;;;;;;;;;;;;;;;;5002727;28;19999;-84
2022/07/10 19:47:26;;;;;;;;;;;;;;;;;;5009405;28;19945;-84
2022/07/10 19:49:51;;;;;;;;;;;;;;;;;;5011957;28;19964;-83
2022/07/10 19:52:16;;;;;;;;;;;;;;;;;;5013229;28;19948;-84
2022/07/10 19:54:42;;;;;;;;;;;;;;;;;;4995173;28;19914;-83
2022/07/10 19:57:07;;;;;;;;;;;;;;;;;;5007688;28;20501;-84
2022/07/10 19:59:32;;;;;;;;;;;;;;;;;;4993420;28;19971;-83
2022/07/10 20:01:57;;;;;;;;;;;;;;;;;;4993135;28;19968;-83
2022/07/10 20:04:22;;;;;;;;;;;;;;;;;;5009274;28;19922;-84
2022/07/10 20:06:48;;;;;;;;;;;;;;;;;;5006764;28;19920;-84
2022/07/10 20:09:13;;;;;;;;;;;;;;;;;;5012345;28;19914;-83
2022/07/10 20:11:49;;;;;;;;;;;;;;;;;;5012818;28;20001;-83
2022/07/10 20:14:15;;;;;;;;;;;;;;;;;;5008515;28;19996;-83
2022/07/10 20:16:40;;;;;;;;;;;;;;;;;;5012221;28;20359;-84
2022/07/10 20:19:05;;;;;;;;;;;;;;;;;;5009491;28;19965;-83
2022/07/10 20:21:30;;;;;;;;;;;;;;;;;;5011179;28;20298;-83
2022/07/10 20:23:56;;;;;;;;;;;;;;;;;;5011868;28;19993;-83
2022/07/10 20:26:24;;;;;;;;;;;;;;;;;;5007068;28;19970;-83
2022/07/10 20:28:58;;;;;;;;;;;;;;;;;;4991642;28;20031;-82
2022/07/10 20:31:26;;;;;;;;;;;;;;;;;;5003821;28;19959;-83
2022/07/10 20:40:07;;;;;;;;;;;;;;;;;;;;;
2022/07/10 20:45:12;;;;;;;;;;;;;;;;;;5012611;28;19944;-83